Home > Products > Valid Products > MTR

000
SAUS44 KSHV 120940
MTRBKB
SPECI KBKB 120939Z AUTO VRB06KT 10SM OVC005 15/14 A3014 RMK AO2
T01500139





000
SAUS44 KSHV 120926
MTRAQV
SPECI KAQV 120925Z AUTO VRB06KT 10SM OVC004 14/13 A3014 RMK AO2
T01390133





000
SAUS44 KSHV 120857
MTRAQV
METAR KAQV 120856Z AUTO VRB04KT 10SM BKN005 13/13 A3014 RMK AO2
SLP204 T01330128 53002





000
SAUS44 KSHV 120855
MTRBKB
METAR KBKB 120854Z AUTO VRB03KT 10SM OVC003 14/13 A3014 RMK AO2
SLP232 T01390133 55000





000
SAUS44 KSHV 120841
MTRAQV
SPECI KAQV 120840Z AUTO 22004KT 10SM FEW006 13/13 A3014 RMK AO2
T01330128





000
SAUS44 KSHV 120841
MTRAQV
SPECI KAQV 120840Z AUTO 22004KT 10SM FEW006 13/13 A3014 RMK AO2
T01330128





000
SAUS44 KSHV 120837
MTRBKB
SPECI KBKB 120835Z AUTO VRB04KT 10SM OVC004 14/13 A3014 RMK AO2 CIG
003V007 T01390128





000
SAUS44 KSHV 120837
MTRBKB
SPECI KBKB 120835Z AUTO VRB04KT 10SM OVC004 14/13 A3014 RMK AO2 CIG
003V007 T01390128





000
SAUS44 KSHV 120759
MTRAQV
METAR KAQV 120756Z AUTO VRB05KT 10SM CLR 13/12 A3013 RMK AO2 SLP203
T01280122





000
SAUS44 KSHV 120758
MTRBKB
METAR KBKB 120754Z AUTO 00000KT 10SM BKN008 13/12 A3014 RMK AO2
SLP232 T01280117





000
SAUS44 KSHV 120758
MTRBKB
METAR KBKB 120754Z AUTO 00000KT 10SM BKN008 13/12 A3014 RMK AO2
SLP232 T01280117





000
SAUS44 KSHV 120751
MTRBKB
SPECI KBKB 120749Z AUTO 00000KT 10SM SCT008 13/12 A3014 RMK AO2





000
SAUS44 KSHV 120700
MTRAQV
METAR KAQV 120656Z AUTO VRB05KT 10SM CLR 14/12 A3014 RMK AO2 SLP203
T01390117





000
SAUS44 KSHV 120655
MTRBKB
METAR KBKB 120654Z AUTO 00000KT 10SM CLR 13/12 A3014 RMK AO2 SLP232
T01330122





000
SAUS44 KSHV 120655
MTRBKB
METAR KBKB 120654Z AUTO 00000KT 10SM CLR 13/12 A3014 RMK AO2 SLP232
T01330122





000
SAUS44 KSHV 120600
MTRAQV
METAR KAQV 120556Z AUTO VRB03KT 10SM CLR 13/12 A3013 RMK AO2 SLP202
T01330117 10200 20111 402560078 50000





000
SAUS44 KSHV 120600
MTRAQV
METAR KAQV 120556Z AUTO VRB03KT 10SM CLR 13/12 A3013 RMK AO2 SLP202
T01330117 10200 20111 402560078 50000





000
SAUS44 KSHV 120555
MTRBKB
METAR KBKB 120554Z AUTO 21004KT 10SM CLR 14/12 A3013 RMK AO2 SLP231
T01390122 10200 20139 402500083 50002





000
SAUS44 KSHV 120555
MTRBKB
METAR KBKB 120554Z AUTO 21004KT 10SM CLR 14/12 A3013 RMK AO2 SLP231
T01390122 10200 20139 402500083 50002





000
SAUS44 KSHV 120457
MTRAQV
METAR KAQV 120456Z AUTO 20005KT 10SM CLR 14/12 A3013 RMK AO2 SLP203
T01390117





000
SAUS44 KSHV 120457
MTRAQV
METAR KAQV 120456Z AUTO 20005KT 10SM CLR 14/12 A3013 RMK AO2 SLP203
T01390117





000
SAUS44 KSHV 120455
MTRBKB
METAR KBKB 120454Z AUTO 21003KT 10SM CLR 15/12 A3014 RMK AO2 SLP235
T01500122





000
SAUS44 KSHV 120455
MTRBKB
METAR KBKB 120454Z AUTO 21003KT 10SM CLR 15/12 A3014 RMK AO2 SLP235
T01500122





000
SAUS44 KSHV 120359
MTRAQV
METAR KAQV 120356Z AUTO 20003KT 10SM CLR 13/09 A3014 RMK AO2 SLP205
T01330094





000
SAUS44 KSHV 120355
MTRBKB
METAR KBKB 120354Z AUTO 21003KT 10SM CLR 16/12 A3014 RMK AO2 SLP233
T01560122





000
SAUS44 KSHV 120257
MTRAQV
METAR KAQV 120256Z AUTO 00000KT 10SM CLR 12/07 A3013 RMK AO2 SLP204
T01220067 51014





000
SAUS44 KSHV 120257
MTRAQV
METAR KAQV 120256Z AUTO 00000KT 10SM CLR 12/07 A3013 RMK AO2 SLP204
T01220067 51014





000
SAUS44 KSHV 120255
MTRBKB
METAR KBKB 120254Z AUTO VRB04KT 10SM CLR 16/12 A3013 RMK AO2 SLP230
T01610117 51013





000
SAUS44 KSHV 120255
MTRBKB
METAR KBKB 120254Z AUTO VRB04KT 10SM CLR 16/12 A3013 RMK AO2 SLP230
T01610117 51013





000
SAUS44 KSHV 120158
MTRAQV
METAR KAQV 120156Z AUTO 00000KT 9SM CLR 12/07 A3012 RMK AO2 SLP200
T01220067





000
SAUS44 KSHV 120158
MTRAQV
METAR KAQV 120156Z AUTO 00000KT 9SM CLR 12/07 A3012 RMK AO2 SLP200
T01220067





000
SAUS44 KSHV 120058
MTRAQV
METAR KAQV 120056Z AUTO 00000KT 10SM CLR 15/06 A3011 RMK AO2 SLP196
T01500061





000
SAUS44 KSHV 120058
MTRAQV
METAR KAQV 120056Z AUTO 00000KT 10SM CLR 15/06 A3011 RMK AO2 SLP196
T01500061





000
SAUS44 KSHV 120055
MTRBKB
METAR KBKB 120054Z AUTO 00000KT 10SM CLR 17/07 A3010 RMK AO2 SLP220
T01670072





000
SAUS44 KSHV 120055
MTRBKB
METAR KBKB 120054Z AUTO 00000KT 10SM CLR 17/07 A3010 RMK AO2 SLP220
T01670072





000
SAUS44 KSHV 112355
MTRBKB
METAR KBKB 112354Z AUTO 00000KT 10SM CLR 20/07 A3009 RMK AO2 SLP217
T02000072 10250 20200 53008





000
SAUS44 KSHV 112355
MTRBKB
METAR KBKB 112354Z AUTO 00000KT 10SM CLR 20/07 A3009 RMK AO2 SLP217
T02000072 10250 20200 53008





000
SAUS44 KSHV 112259
MTRAQV
METAR KAQV 112256Z AUTO VRB04KT 10SM CLR 24/06 A3008 RMK AO2 SLP185
T02390056





000
SAUS44 KSHV 112259
MTRAQV
METAR KAQV 112256Z AUTO VRB04KT 10SM CLR 24/06 A3008 RMK AO2 SLP185
T02390056





000
SAUS44 KSHV 112255
MTRBKB
METAR KBKB 112254Z AUTO VRB04KT 10SM CLR 23/07 A3007 RMK AO2 SLP211
T02330072





000
SAUS44 KSHV 112159
MTRAQV
METAR KAQV 112156Z AUTO 21006KT 6SM HZ CLR 25/06 A3006 RMK AO2
SLP180 T02500056





000
SAUS44 KSHV 112155
MTRBKB
METAR KBKB 112154Z AUTO VRB03KT 10SM CLR 25/08 A3006 RMK AO2 SLP207
T02500078





000
SAUS44 KSHV 112059
MTRAQV
METAR KAQV 112056Z AUTO 22007KT 190V260 5SM HZ CLR 26/06 A3007 RMK
AO2 SLP180 T02560056 56021





000
SAUS44 KSHV 112059
MTRAQV
METAR KAQV 112056Z AUTO 22007KT 190V260 5SM HZ CLR 26/06 A3007 RMK
AO2 SLP180 T02560056 56021





000
SAUS44 KSHV 112057
MTRBKB
METAR KBKB 112054Z AUTO VRB03KT 10SM CLR 25/06 A3007 RMK AO2 SLP208
T02500061 56023





000
SAUS44 KSHV 112057
MTRBKB
METAR KBKB 112054Z AUTO VRB03KT 10SM CLR 25/06 A3007 RMK AO2 SLP208
T02500061 56023





000
SAUS44 KSHV 111958
MTRAQV
METAR KAQV 111956Z AUTO 24007KT 10SM CLR 24/04 A3008 RMK AO2 SLP185
T02440044





000
SAUS44 KSHV 111955
MTRBKB
METAR KBKB 111954Z AUTO VRB04KT 10SM FEW033 24/06 A3008 RMK AO2
SLP214 T02390061





000
SAUS44 KSHV 111906
MTRBKB
SPECI KBKB 111905Z AUTO VRB03KT 10SM SCT025 24/06 A3009 RMK AO2
T02390061





000
SAUS44 KSHV 111906
MTRBKB
SPECI KBKB 111905Z AUTO VRB03KT 10SM SCT025 24/06 A3009 RMK AO2
T02390061





000
SAUS44 KSHV 111858
MTRAQV
METAR KAQV 111856Z AUTO VRB06G14KT 10SM CLR 24/04 A3010 RMK AO2
SLP192 T02390044





000
SAUS44 KSHV 111855
MTRBKB
METAR KBKB 111854Z AUTO VRB06KT 10SM BKN024 23/06 A3010 RMK AO2
SLP220 T02330056





000
SAUS44 KSHV 111839
MTRBKB
SPECI KBKB 111838Z AUTO 26007KT 200V330 10SM BKN024 23/07 A3011 RMK
AO2 T02280067





000
SAUS44 KSHV 111839
MTRBKB
SPECI KBKB 111838Z AUTO 26007KT 200V330 10SM BKN024 23/07 A3011 RMK
AO2 T02280067





000
SAUS44 KSHV 111757
MTRAQV
METAR KAQV 111756Z AUTO 26008G17KT 230V320 10SM CLR 23/04 A3013 RMK
AO2 SLP202 T02330044 10233 20089 58004





000
SAUS44 KSHV 111757
MTRAQV
METAR KAQV 111756Z AUTO 26008G17KT 230V320 10SM CLR 23/04 A3013 RMK
AO2 SLP202 T02330044 10233 20089 58004





000
SAUS44 KSHV 111755
MTRBKB
METAR KBKB 111754Z AUTO VRB06KT 10SM CLR 22/07 A3013 RMK AO2 SLP232
T02220072 10222 20111 58006





000
SAUS44 KSHV 111755
MTRBKB
METAR KBKB 111754Z AUTO VRB06KT 10SM CLR 22/07 A3013 RMK AO2 SLP232
T02220072 10222 20111 58006





000
SAUS44 KSHV 111657
MTRAQV
METAR KAQV 111656Z AUTO 25009G18KT 190V300 10SM CLR 20/06 A3014 RMK
AO2 SLP206 T02000056





000
SAUS44 KSHV 111657
MTRAQV
METAR KAQV 111656Z AUTO 25009G18KT 190V300 10SM CLR 20/06 A3014 RMK
AO2 SLP206 T02000056





000
SAUS44 KSHV 111655
MTRBKB
METAR KBKB 111654Z AUTO 20007KT 160V250 10SM CLR 21/07 A3014 RMK AO2
SLP235 T02060072





000
SAUS44 KSHV 111655
MTRBKB
METAR KBKB 111654Z AUTO 20007KT 160V250 10SM CLR 21/07 A3014 RMK AO2
SLP235 T02060072





000
SAUS44 KSHV 111602
MTRAQV
METAR KAQV 111556Z AUTO VRB06KT 10SM CLR 17/07 A3015 RMK AO2 SLP208
T01670072





000
SAUS44 KSHV 111555
MTRBKB
METAR KBKB 111554Z AUTO 24010G18KT 200V260 10SM CLR 18/08 A3015 RMK
AO2 SLP238 T01830083





000
SAUS44 KSHV 111555
MTRBKB
METAR KBKB 111554Z AUTO 24010G18KT 200V260 10SM CLR 18/08 A3015 RMK
AO2 SLP238 T01830083





000
SAUS44 KSHV 111458
MTRAQV
METAR KAQV 111456Z AUTO 23009G15KT 190V260 10SM CLR 14/08 A3014 RMK
AO2 SLP208 T01390078 53006





000
SAUS44 KSHV 111455
MTRBKB
METAR KBKB 111454Z AUTO 25007KT 210V290 10SM CLR 16/09 A3015 RMK AO2
SLP239 T01560094 53009





000
SAUS44 KSHV 111455
MTRBKB
METAR KBKB 111454Z AUTO 25007KT 210V290 10SM CLR 16/09 A3015 RMK AO2
SLP239 T01560094 53009





000
SAUS44 KSHV 111358
MTRAQV
METAR KAQV 111356Z AUTO 22007KT 190V270 10SM CLR 11/08 A3013 RMK AO2
SLP204 T01060078





000
SAUS44 KSHV 111355
MTRBKB
METAR KBKB 111354Z AUTO VRB04KT 10SM CLR 12/09 A3013 RMK AO2 SLP234
T01220094





000
SAUS44 KSHV 111355
MTRBKB
METAR KBKB 111354Z AUTO VRB04KT 10SM CLR 12/09 A3013 RMK AO2 SLP234
T01220094





000
SAUS44 KSHV 111302
MTRAQV
METAR KAQV 111256Z AUTO VRB06KT 10SM CLR 09/08 A3013 RMK AO2 SLP203
T00890078





000
SAUS44 KSHV 111256
MTRBKB
METAR KBKB 111254Z AUTO VRB04KT 10SM CLR 11/09 A3013 RMK AO2 SLP233
T01110089





000
SAUS44 KSHV 111256
MTRBKB
METAR KBKB 111254Z AUTO VRB04KT 10SM CLR 11/09 A3013 RMK AO2 SLP233
T01110089





000
SAUS44 KSHV 111157
MTRAQV
METAR KAQV 111156Z AUTO VRB06KT 10SM CLR 09/08 A3012 RMK AO2 SLP201
T00890078 10089 20078 53003





000
SAUS44 KSHV 111157
MTRAQV
METAR KAQV 111156Z AUTO VRB06KT 10SM CLR 09/08 A3012 RMK AO2 SLP201
T00890078 10089 20078 53003





000
SAUS44 KSHV 111155
MTRBKB
METAR KBKB 111154Z AUTO 10SM CLR 11/09 A3012 RMK AO2 SLP230
T01110094 10111 20083 53001





000
SAUS44 KSHV 111155
MTRBKB
METAR KBKB 111154Z AUTO 10SM CLR 11/09 A3012 RMK AO2 SLP230
T01110094 10111 20083 53001





000
SAUS44 KSHV 111058
MTRAQV
METAR KAQV 111056Z AUTO 21005KT 10SM CLR 08/07 A3012 RMK AO2 SLP198
T00830072





000
SAUS44 KSHV 111058
MTRBKB
METAR KBKB 111054Z AUTO VRB05KT 10SM CLR 10/08 A3012 RMK AO2 SLP228
T01000083





000
SAUS44 KSHV 111058
MTRBKB
METAR KBKB 111054Z AUTO VRB05KT 10SM CLR 10/08 A3012 RMK AO2 SLP228
T01000083





000
SAUS44 KSHV 111058
MTRAQV
METAR KAQV 111056Z AUTO 21005KT 10SM CLR 08/07 A3012 RMK AO2 SLP198
T00830072





000
SAUS44 KSHV 110957
MTRAQV
METAR KAQV 110956Z AUTO VRB05KT 10SM CLR 08/07 A3011 RMK AO2 SLP198
T00780072





000
SAUS44 KSHV 110955
MTRBKB
METAR KBKB 110954Z AUTO VRB04KT 10SM CLR 09/08 A3012 RMK AO2 SLP228
T00940078





000
SAUS44 KSHV 110858
MTRAQV
METAR KAQV 110856Z AUTO VRB06KT 10SM CLR 08/06 A3011 RMK AO2 SLP198
T00830061 56011





000
SAUS44 KSHV 110858
MTRAQV
METAR KAQV 110856Z AUTO VRB06KT 10SM CLR 08/06 A3011 RMK AO2 SLP198
T00830061 56011





000
SAUS44 KSHV 110855
MTRBKB
METAR KBKB 110854Z AUTO VRB05KT 10SM CLR 09/07 A3012 RMK AO2 SLP228
T00890067 56011





000
SAUS44 KSHV 110855
MTRBKB
METAR KBKB 110854Z AUTO VRB05KT 10SM CLR 09/07 A3012 RMK AO2 SLP228
T00890067 56011





000
SAUS44 KSHV 110757
MTRAQV
METAR KAQV 110756Z AUTO VRB05KT 10SM CLR 09/06 A3012 RMK AO2 SLP200
T00890061





000
SAUS44 KSHV 110757
MTRAQV
METAR KAQV 110756Z AUTO VRB05KT 10SM CLR 09/06 A3012 RMK AO2 SLP200
T00890061





000
SAUS44 KSHV 110755
MTRBKB
METAR KBKB 110754Z AUTO VRB05KT 10SM CLR 08/06 A3013 RMK AO2 SLP232
T00830061





000
SAUS44 KSHV 110755
MTRBKB
METAR KBKB 110754Z AUTO VRB05KT 10SM CLR 08/06 A3013 RMK AO2 SLP232
T00830061





000
SAUS44 KSHV 110659
MTRAQV
METAR KAQV 110656Z AUTO VRB06KT 10SM CLR 09/05 A3013 RMK AO2 SLP205
T00890050





000
SAUS44 KSHV 110659
MTRAQV
METAR KAQV 110656Z AUTO VRB06KT 10SM CLR 09/05 A3013 RMK AO2 SLP205
T00890050





000
SAUS44 KSHV 110655
MTRBKB
METAR KBKB 110654Z AUTO 21004KT 10SM CLR 09/06 A3014 RMK AO2 SLP236
T00890056





000
SAUS44 KSHV 110655
MTRBKB
METAR KBKB 110654Z AUTO 21004KT 10SM CLR 09/06 A3014 RMK AO2 SLP236
T00890056





000
SAUS44 KSHV 110559
MTRAQV
METAR KAQV 110556Z AUTO VRB05KT 10SM CLR 09/04 A3015 RMK AO2 SLP209
T00890039 10133 20083 401721006 58006





000
SAUS44 KSHV 110559
MTRAQV
METAR KAQV 110556Z AUTO VRB05KT 10SM CLR 09/04 A3015 RMK AO2 SLP209
T00890039 10133 20083 401721006 58006





000
SAUS44 KSHV 110555
MTRBKB
METAR KBKB 110554Z AUTO VRB06KT 10SM CLR 09/05 A3015 RMK AO2 SLP240
T00890050 10133 20089 401780006 58008





000
SAUS44 KSHV 110555
MTRBKB
METAR KBKB 110554Z AUTO VRB06KT 10SM CLR 09/05 A3015 RMK AO2 SLP240
T00890050 10133 20089 401780006 58008





000
SAUS44 KSHV 110457
MTRAQV
METAR KAQV 110456Z AUTO VRB06KT 10SM CLR 09/02 A3016 RMK AO2 SLP214
T00890022





000
SAUS44 KSHV 110457
MTRAQV
METAR KAQV 110456Z AUTO VRB06KT 10SM CLR 09/02 A3016 RMK AO2 SLP214
T00890022





000
SAUS44 KSHV 110359
MTRAQV
METAR KAQV 110356Z AUTO VRB06G19KT 10SM CLR 11/01 A3017 RMK AO2
SLP216 T01060011





000
SAUS44 KSHV 110355
MTRBKB
METAR KBKB 110354Z AUTO VRB05KT 10SM CLR 10/02 A3018 RMK AO2 SLP249
T01000022





000
SAUS44 KSHV 110259
MTRAQV
METAR KAQV 110256Z AUTO 20006KT 10SM CLR 11/01 A3016 RMK AO2 SLP216
T01110011 58007





000
SAUS44 KSHV 110259
MTRAQV
METAR KAQV 110256Z AUTO 20006KT 10SM CLR 11/01 A3016 RMK AO2 SLP216
T01110011 58007





000
SAUS44 KSHV 110256
MTRBKB
METAR KBKB 110254Z AUTO VRB05KT 10SM CLR 11/02 A3018 RMK AO2 SLP249
T01060017 56004





000
SAUS44 KSHV 110256
MTRBKB
METAR KBKB 110254Z AUTO VRB05KT 10SM CLR 11/02 A3018 RMK AO2 SLP249
T01060017 56004





000
SAUS44 KSHV 110157
MTRAQV
METAR KAQV 110156Z AUTO 18005KT 10SM CLR 09/01 A3017 RMK AO2 SLP219
T00890006





000
SAUS44 KSHV 110157
MTRAQV
METAR KAQV 110156Z AUTO 18005KT 10SM CLR 09/01 A3017 RMK AO2 SLP219
T00890006





000
SAUS44 KSHV 110155
MTRBKB
METAR KBKB 110154Z AUTO VRB04KT 10SM CLR 12/01 A3018 RMK AO2 SLP251
T01170006





000
SAUS44 KSHV 110155
MTRBKB
METAR KBKB 110154Z AUTO VRB04KT 10SM CLR 12/01 A3018 RMK AO2 SLP251
T01170006





000
SAUS44 KSHV 110059
MTRAQV
METAR KAQV 110056Z AUTO 19003KT 10SM CLR 11/00 A3018 RMK AO2 SLP223
T01110000





000
SAUS44 KSHV 110059
MTRAQV
METAR KAQV 110056Z AUTO 19003KT 10SM CLR 11/00 A3018 RMK AO2 SLP223
T01110000





000
SAUS44 KSHV 110057
MTRBKB
METAR KBKB 110054Z AUTO 00000KT 10SM CLR 11/01 A3018 RMK AO2 SLP253
T01060006





000
SAUS44 KSHV 110057
MTRBKB
METAR KBKB 110054Z AUTO 00000KT 10SM CLR 11/01 A3018 RMK AO2 SLP253
T01060006





000
SAUS44 KSHV 102357
MTRAQV
METAR KAQV 102356Z AUTO 00000KT 10SM CLR 13/00 A3018 RMK AO2 SLP223
T01330000 10172 20122 56015





000
SAUS44 KSHV 102357
MTRAQV
METAR KAQV 102356Z AUTO 00000KT 10SM CLR 13/00 A3018 RMK AO2 SLP223
T01330000 10172 20122 56015





000
SAUS44 KSHV 102355
MTRBKB
METAR KBKB 102354Z AUTO 00000KT 10SM CLR 13/01 A3019 RMK AO2 SLP254
T01330006 10178 20128 56013





000
SAUS44 KSHV 102355
MTRBKB
METAR KBKB 102354Z AUTO 00000KT 10SM CLR 13/01 A3019 RMK AO2 SLP254
T01330006 10178 20128 56013





000
SAUS44 KSHV 102257
MTRAQV
METAR KAQV 102256Z AUTO VRB03KT 10SM CLR 16/M01 A3019 RMK AO2 SLP226
T01611006





000
SAUS44 KSHV 102257
MTRAQV
METAR KAQV 102256Z AUTO VRB03KT 10SM CLR 16/M01 A3019 RMK AO2 SLP226
T01611006





000
SAUS44 KSHV 102255
MTRBKB
METAR KBKB 102254Z AUTO VRB03KT 10SM CLR 16/M01 A3020 RMK AO2 SLP255
T01611006





000
SAUS44 KSHV 102255
MTRBKB
METAR KBKB 102254Z AUTO VRB03KT 10SM CLR 16/M01 A3020 RMK AO2 SLP255
T01611006





000
SAUS44 KSHV 102157
MTRAQV
METAR KAQV 102156Z AUTO VRB05KT 10SM CLR 17/M02 A3021 RMK AO2 SLP230
T01671017





000
SAUS44 KSHV 102155
MTRBKB
METAR KBKB 102154Z AUTO VRB03KT 10SM CLR 17/M01 A3021 RMK AO2 SLP260
T01671011





000
SAUS44 KSHV 102058
MTRAQV
METAR KAQV 102056Z AUTO VRB06KT 10SM CLR 17/M02 A3023 RMK AO2 SLP237
T01671022 56034





000
SAUS44 KSHV 102055
MTRBKB
METAR KBKB 102054Z AUTO VRB04KT 10SM CLR 17/M02 A3023 RMK AO2 SLP266
T01721022 56031





000
SAUS44 KSHV 101957
MTRAQV
METAR KAQV 101956Z AUTO VRB04KT 10SM CLR 16/M04 A3025 RMK AO2 SLP245
T01561039





000
SAUS44 KSHV 101955
MTRBKB
METAR KBKB 101954Z AUTO VRB04KT 10SM CLR 16/M03 A3025 RMK AO2 SLP273
T01611033





000
SAUS44 KSHV 101858
MTRAQV
METAR KAQV 101856Z AUTO 00000KT 10SM CLR 14/M04 A3029 RMK AO2 SLP258
T01441044





000
SAUS44 KSHV 101855
MTRBKB
METAR KBKB 101854Z AUTO VRB03KT 10SM CLR 15/M04 A3029 RMK AO2 SLP285
T01501039





000
SAUS44 KSHV 101855
MTRBKB
METAR KBKB 101854Z AUTO VRB03KT 10SM CLR 15/M04 A3029 RMK AO2 SLP285
T01501039





000
SAUS44 KSHV 101759
MTRAQV
METAR KAQV 101756Z AUTO 06003KT 10SM CLR 12/M07 A3033 RMK AO2 SLP272
T01221067 10128 21006 58013





000
SAUS44 KSHV 101759
MTRAQV
METAR KAQV 101756Z AUTO 06003KT 10SM CLR 12/M07 A3033 RMK AO2 SLP272
T01221067 10128 21006 58013





000
SAUS44 KSHV 101757
MTRBKB
METAR KBKB 101754Z AUTO 13003KT 10SM CLR 13/M06 A3032 RMK AO2 SLP298
T01281056 10139 20006 58014 $





000
SAUS44 KSHV 101757
MTRBKB
METAR KBKB 101754Z AUTO 13003KT 10SM CLR 13/M06 A3032 RMK AO2 SLP298
T01281056 10139 20006 58014 $





000
SAUS44 KSHV 101657
MTRAQV
METAR KAQV 101656Z AUTO VRB03KT 10SM CLR 10/M08 A3036 RMK AO2 SLP281
T01001083





000
SAUS44 KSHV 101657
MTRAQV
METAR KAQV 101656Z AUTO VRB03KT 10SM CLR 10/M08 A3036 RMK AO2 SLP281
T01001083





000
SAUS44 KSHV 101656
MTRBKB
METAR KBKB 101654Z AUTO 00000KT 10SM CLR 11/M07 A3035 RMK AO2 SLP307
T01061067 $





000
SAUS44 KSHV 101656
MTRBKB
METAR KBKB 101654Z AUTO 00000KT 10SM CLR 11/M07 A3035 RMK AO2 SLP307
T01061067 $





000
SAUS44 KSHV 101557
MTRAQV
METAR KAQV 101556Z AUTO VRB03KT 10SM CLR 08/M08 A3037 RMK AO2 SLP286
T00831083





000
SAUS44 KSHV 101556
MTRBKB
METAR KBKB 101554Z AUTO 00000KT 10SM CLR 09/M06 A3036 RMK AO2 SLP313
T00891061 $





000
SAUS44 KSHV 101556
MTRBKB
METAR KBKB 101554Z AUTO 00000KT 10SM CLR 09/M06 A3036 RMK AO2 SLP313
T00891061 $





000
SAUS44 KSHV 101457
MTRAQV
METAR KAQV 101456Z AUTO VRB05KT 10SM CLR 06/M07 A3037 RMK AO2 SLP286
T00611067 53017





000
SAUS44 KSHV 101455
MTRBKB
METAR KBKB 101454Z AUTO 04004KT 10SM CLR 07/M06 A3036 RMK AO2 SLP312
T00671061 51020 $





000
SAUS44 KSHV 101455
MTRBKB
METAR KBKB 101454Z AUTO 04004KT 10SM CLR 07/M06 A3036 RMK AO2 SLP312
T00671061 51020 $





000
SAUS44 KSHV 101357
MTRAQV
METAR KAQV 101356Z AUTO 00000KT 9SM CLR 01/M02 A3035 RMK AO2 SLP280
T00111017





000
SAUS44 KSHV 101355
MTRBKB
METAR KBKB 101354Z AUTO 00000KT 10SM CLR 03/M03 A3034 RMK AO2 SLP305
T00281033





000
SAUS44 KSHV 101259
MTRAQV
METAR KAQV 101256Z AUTO 00000KT 10SM CLR 01/M06 A3033 RMK AO2 SLP274
T00111056





000
SAUS44 KSHV 101259
MTRAQV
METAR KAQV 101256Z AUTO 00000KT 10SM CLR 01/M06 A3033 RMK AO2 SLP274
T00111056





000
SAUS44 KSHV 101255
MTRBKB
METAR KBKB 101254Z AUTO 00000KT 10SM CLR 01/M06 A3033 RMK AO2 SLP300
T00061061





000
SAUS44 KSHV 101157
MTRAQV
METAR KAQV 101156Z AUTO 00000KT 10SM CLR 01/M05 A3032 RMK AO2 SLP268
T00061050 10050 20006 53012





000
SAUS44 KSHV 101157
MTRAQV
METAR KAQV 101156Z AUTO 00000KT 10SM CLR 01/M05 A3032 RMK AO2 SLP268
T00061050 10050 20006 53012





000
SAUS44 KSHV 101156
MTRBKB
METAR KBKB 101154Z AUTO 00000KT 10SM CLR 02/M06 A3030 RMK AO2 SLP292
T00221061 10061 20022 53014





000
SAUS44 KSHV 101156
MTRBKB
METAR KBKB 101154Z AUTO 00000KT 10SM CLR 02/M06 A3030 RMK AO2 SLP292
T00221061 10061 20022 53014





000
SAUS44 KSHV 101057
MTRAQV
METAR KAQV 101056Z AUTO 00000KT 10SM CLR 02/M06 A3030 RMK AO2 SLP263
T00171056





000
SAUS44 KSHV 101057
MTRAQV
METAR KAQV 101056Z AUTO 00000KT 10SM CLR 02/M06 A3030 RMK AO2 SLP263
T00171056





000
SAUS44 KSHV 101056
MTRBKB
METAR KBKB 101054Z AUTO 00000KT 10SM CLR 03/M06 A3029 RMK AO2 SLP288
T00331056





000
SAUS44 KSHV 101056
MTRBKB
METAR KBKB 101054Z AUTO 00000KT 10SM CLR 03/M06 A3029 RMK AO2 SLP288
T00331056





000
SAUS44 KSHV 100957
MTRAQV
METAR KAQV 100956Z AUTO VRB03KT 10SM CLR 03/M06 A3029 RMK AO2 SLP257
T00331061





000
SAUS44 KSHV 100955
MTRBKB
METAR KBKB 100954Z AUTO 00000KT 10SM CLR 04/M06 A3027 RMK AO2 SLP280
T00441061





000
SAUS44 KSHV 100955
MTRBKB
METAR KBKB 100954Z AUTO 00000KT 10SM CLR 04/M06 A3027 RMK AO2 SLP280
T00441061





000
SAUS44 KSHV 100857
MTRAQV
METAR KAQV 100856Z AUTO 34003KT 10SM CLR 03/M06 A3028 RMK AO2 SLP256
T00331056 51005





000
SAUS44 KSHV 100857
MTRAQV
METAR KAQV 100856Z AUTO 34003KT 10SM CLR 03/M06 A3028 RMK AO2 SLP256
T00331056 51005





000
SAUS44 KSHV 100855
MTRBKB
METAR KBKB 100854Z AUTO VRB03KT 10SM CLR 04/M06 A3026 RMK AO2 SLP277
T00441056 51003





000
SAUS44 KSHV 100758
MTRAQV
METAR KAQV 100756Z AUTO VRB03KT 10SM CLR 04/M05 A3028 RMK AO2 SLP256
T00391050





000
SAUS44 KSHV 100756
MTRBKB
METAR KBKB 100754Z AUTO VRB03KT 10SM CLR 05/M04 A3026 RMK AO2 SLP278
T00501044





000
SAUS44 KSHV 100657
MTRAQV
METAR KAQV 100656Z AUTO 00000KT 10SM CLR 04/M05 A3027 RMK AO2 SLP253
T00441050





000
SAUS44 KSHV 100657
MTRAQV
METAR KAQV 100656Z AUTO 00000KT 10SM CLR 04/M05 A3027 RMK AO2 SLP253
T00441050





000
SAUS44 KSHV 100655
MTRBKB
METAR KBKB 100654Z AUTO VRB03KT 10SM CLR 06/M04 A3026 RMK AO2 SLP279
T00561044





000
SAUS44 KSHV 100655
MTRBKB
METAR KBKB 100654Z AUTO VRB03KT 10SM CLR 06/M04 A3026 RMK AO2 SLP279
T00561044





000
SAUS44 KSHV 100557
MTRAQV
METAR KAQV 100556Z AUTO 00000KT 9SM CLR 04/M03 A3027 RMK AO2 SLP251
T00391028 10128 20039 401500022 53019





000
SAUS44 KSHV 100557
MTRAQV
METAR KAQV 100556Z AUTO 00000KT 9SM CLR 04/M03 A3027 RMK AO2 SLP251
T00391028 10128 20039 401500022 53019





000
SAUS44 KSHV 100555
MTRBKB
METAR KBKB 100554Z AUTO 00000KT 10SM CLR 06/M03 A3025 RMK AO2 SLP275
T00561033 10128 20050 401560022 53020





000
SAUS44 KSHV 100555
MTRBKB
METAR KBKB 100554Z AUTO 00000KT 10SM CLR 06/M03 A3025 RMK AO2 SLP275
T00561033 10128 20050 401560022 53020





000
SAUS44 KSHV 100459
MTRAQV
METAR KAQV 100456Z AUTO 00000KT 10SM CLR 05/M03 A3024 RMK AO2 SLP242
T00501028





000
SAUS44 KSHV 100459
MTRAQV
METAR KAQV 100456Z AUTO 00000KT 10SM CLR 05/M03 A3024 RMK AO2 SLP242
T00501028





000
SAUS44 KSHV 100455
MTRBKB
METAR KBKB 100454Z AUTO 00000KT 10SM CLR 05/M03 A3023 RMK AO2 SLP267
T00501028





000
SAUS44 KSHV 100455
MTRBKB
METAR KBKB 100454Z AUTO 00000KT 10SM CLR 05/M03 A3023 RMK AO2 SLP267
T00501028





000
SAUS44 KSHV 100400
MTRAQV
METAR KAQV 100356Z AUTO 00000KT 10SM CLR 05/M02 A3023 RMK AO2 SLP238
T00501022





000
SAUS44 KSHV 100400
MTRAQV
METAR KAQV 100356Z AUTO 00000KT 10SM CLR 05/M02 A3023 RMK AO2 SLP238
T00501022





000
SAUS44 KSHV 100355
MTRBKB
METAR KBKB 100354Z AUTO 00000KT 10SM CLR 08/M03 A3021 RMK AO2 SLP261
T00831033





000
SAUS44 KSHV 100257
MTRAQV
METAR KAQV 100256Z AUTO 00000KT 10SM CLR 07/M03 A3021 RMK AO2 SLP231
T00721028 51022





000
SAUS44 KSHV 100256
MTRBKB
METAR KBKB 100254Z AUTO 00000KT 10SM CLR 09/M03 A3019 RMK AO2 SLP255
T00891028 51022





000
SAUS44 KSHV 100256
MTRBKB
METAR KBKB 100254Z AUTO 00000KT 10SM CLR 09/M03 A3019 RMK AO2 SLP255
T00891028 51022





000
SAUS44 KSHV 100158
MTRAQV
METAR KAQV 100156Z AUTO 00000KT 10SM CLR 09/M04 A3019 RMK AO2 SLP226
T00941044





000
SAUS44 KSHV 100158
MTRAQV
METAR KAQV 100156Z AUTO 00000KT 10SM CLR 09/M04 A3019 RMK AO2 SLP226
T00941044





000
SAUS44 KSHV 100156
MTRBKB
METAR KBKB 100154Z AUTO 00000KT 10SM CLR 10/M03 A3018 RMK AO2 SLP250
T01001033





000
SAUS44 KSHV 100156
MTRBKB
METAR KBKB 100154Z AUTO 00000KT 10SM CLR 10/M03 A3018 RMK AO2 SLP250
T01001033





000
SAUS44 KSHV 100057
MTRAQV
METAR KAQV 100056Z AUTO VRB03KT 10SM CLR 11/M04 A3018 RMK AO2 SLP220
T01111044





000
SAUS44 KSHV 100057
MTRAQV
METAR KAQV 100056Z AUTO VRB03KT 10SM CLR 11/M04 A3018 RMK AO2 SLP220
T01111044





000
SAUS44 KSHV 092357
MTRAQV
METAR KAQV 092356Z AUTO VRB06KT 10SM CLR 13/M04 A3014 RMK AO2 SLP209
T01281044 10150 20106 53010





000
SAUS44 KSHV 092357
MTRAQV
METAR KAQV 092356Z AUTO VRB06KT 10SM CLR 13/M04 A3014 RMK AO2 SLP209
T01281044 10150 20106 53010





000
SAUS44 KSHV 092356
MTRBKB
METAR KBKB 092354Z AUTO VRB03KT 10SM CLR 13/M04 A3013 RMK AO2 SLP233
T01281044 10156 20122 53008





000
SAUS44 KSHV 092356
MTRBKB
METAR KBKB 092354Z AUTO VRB03KT 10SM CLR 13/M04 A3013 RMK AO2 SLP233
T01281044 10156 20122 53008





000
SAUS44 KSHV 092257
MTRAQV
METAR KAQV 092256Z AUTO VRB05G20KT 10SM CLR 14/M06 A3013 RMK AO2
SLP203 T01391056





000
SAUS44 KSHV 092257
MTRAQV
METAR KAQV 092256Z AUTO VRB05G20KT 10SM CLR 14/M06 A3013 RMK AO2
SLP203 T01391056





000
SAUS44 KSHV 092255
MTRBKB
METAR KBKB 092254Z AUTO 31007KT 240V010 10SM CLR 14/M05 A3012 RMK
AO2 SLP228 T01391050





000
SAUS44 KSHV 092255
MTRBKB
METAR KBKB 092254Z AUTO 31007KT 240V010 10SM CLR 14/M05 A3012 RMK
AO2 SLP228 T01391050





000
SAUS44 KSHV 092158
MTRAQV
METAR KAQV 092156Z AUTO 32008G18KT 250V360 10SM CLR 14/M06 A3011 RMK
AO2 SLP199 T01441061





000
SAUS44 KSHV 092156
MTRBKB
METAR KBKB 092154Z AUTO 34009G22KT 290V040 10SM CLR 15/M05 A3010 RMK
AO2 SLP220 T01501050





000
SAUS44 KSHV 092057
MTRAQV
METAR KAQV 092056Z AUTO 32008G18KT 270V010 10SM CLR 14/M07 A3011 RMK
AO2 SLP199 T01441072 56029





000
SAUS44 KSHV 092056
MTRBKB
METAR KBKB 092054Z AUTO 10SM CLR 16/M06 A3010 RMK AO2 SLP224
T01561061 56028





000
SAUS44 KSHV 092056
MTRBKB
METAR KBKB 092054Z AUTO 10SM CLR 16/M06 A3010 RMK AO2 SLP224
T01561061 56028





000
SAUS44 KSHV 091955
MTRBKB
METAR KBKB 091954Z AUTO 32011G20KT 270V350 10SM CLR 14/M08 A3012 RMK
AO2 SLP231 T01391083





000
SAUS44 KSHV 091859
MTRAQV
METAR KAQV 091856Z AUTO 10SM CLR 12/M11 A3017 RMK AO2 SLP217
T01221106





000
SAUS44 KSHV 091859
MTRAQV
METAR KAQV 091856Z AUTO 10SM CLR 12/M11 A3017 RMK AO2 SLP217
T01221106





000
SAUS44 KSHV 091855
MTRBKB
METAR KBKB 091854Z AUTO 32008G21KT 230V020 10SM CLR 13/M09 A3015 RMK
AO2 SLP241 T01281094





000
SAUS44 KSHV 091855
MTRBKB
METAR KBKB 091854Z AUTO 32008G21KT 230V020 10SM CLR 13/M09 A3015 RMK
AO2 SLP241 T01281094





000
SAUS44 KSHV 091757
MTRAQV
METAR KAQV 091756Z AUTO 30007G20KT 250V080 10SM CLR 11/M09 A3020 RMK
AO2 SLP228 T01111094 10117 20022 58013





000
SAUS44 KSHV 091755
MTRBKB
METAR KBKB 091754Z AUTO 29008G18KT 260V330 10SM CLR 12/M10 A3019 RMK
AO2 SLP253 T01221100 10122 20022 58013





000
SAUS44 KSHV 091657
MTRAQV
METAR KAQV 091656Z AUTO 32009G17KT 280V020 10SM CLR 11/M10 A3023 RMK
AO2 SLP238 T01061100





000
SAUS44 KSHV 091657
MTRAQV
METAR KAQV 091656Z AUTO 32009G17KT 280V020 10SM CLR 11/M10 A3023 RMK
AO2 SLP238 T01061100





000
SAUS44 KSHV 091655
MTRBKB
METAR KBKB 091654Z AUTO 31011G18KT 260V350 10SM CLR 11/M09 A3022 RMK
AO2 SLP263 T01111094





000
SAUS44 KSHV 091655
MTRBKB
METAR KBKB 091654Z AUTO 31011G18KT 260V350 10SM CLR 11/M09 A3022 RMK
AO2 SLP263 T01111094





000
SAUS44 KSHV 091458
MTRAQV
METAR KAQV 091456Z AUTO 29007KT 270V330 10SM CLR 07/M08 A3024 RMK
AO2 SLP241 T00671078 53015





000
SAUS44 KSHV 091456
MTRBKB
METAR KBKB 091454Z AUTO VRB06KT 10SM CLR 07/M07 A3023 RMK AO2 SLP266
T00671072 53014





000
SAUS44 KSHV 091358
MTRAQV
METAR KAQV 091356Z AUTO VRB05KT 10SM CLR 04/M08 A3022 RMK AO2 SLP234
T00441078





000
SAUS44 KSHV 091355
MTRBKB
METAR KBKB 091354Z AUTO VRB04KT 10SM CLR 05/M08 A3020 RMK AO2 SLP256
T00501078 $





000
SAUS44 KSHV 091257
MTRAQV
METAR KAQV 091256Z AUTO VRB04KT 10SM CLR 03/M08 A3020 RMK AO2 SLP230
T00281078





000
SAUS44 KSHV 091257
MTRAQV
METAR KAQV 091256Z AUTO VRB04KT 10SM CLR 03/M08 A3020 RMK AO2 SLP230
T00281078





000
SAUS44 KSHV 091158
MTRAQV
METAR KAQV 091156Z AUTO VRB03KT 10SM CLR 03/M08 A3019 RMK AO2 SLP226
T00331078 10056 20028 53008





000
SAUS44 KSHV 091158
MTRAQV
METAR KAQV 091156Z AUTO VRB03KT 10SM CLR 03/M08 A3019 RMK AO2 SLP226
T00331078 10056 20028 53008





000
SAUS44 KSHV 091156
MTRBKB
METAR KBKB 091154Z AUTO 00000KT 10SM CLR 03/M08 A3019 RMK AO2 SLP252
T00331078 10050 20022 53011 $





000
SAUS44 KSHV 091156
MTRBKB
METAR KBKB 091154Z AUTO 00000KT 10SM CLR 03/M08 A3019 RMK AO2 SLP252
T00331078 10050 20022 53011 $





000
SAUS44 KSHV 091058
MTRAQV
METAR KAQV 091056Z AUTO VRB03KT 10SM CLR 03/M09 A3018 RMK AO2 SLP222
T00331089





000
SAUS44 KSHV 091058
MTRAQV
METAR KAQV 091056Z AUTO VRB03KT 10SM CLR 03/M09 A3018 RMK AO2 SLP222
T00331089





000
SAUS44 KSHV 091055
MTRBKB
METAR KBKB 091054Z AUTO VRB03KT 10SM CLR 04/M08 A3018 RMK AO2 SLP249
T00391078 $





000
SAUS44 KSHV 090958
MTRAQV
METAR KAQV 090956Z AUTO VRB04KT 10SM CLR 04/M09 A3017 RMK AO2 SLP217
T00391089





000
SAUS44 KSHV 090956
MTRBKB
METAR KBKB 090954Z AUTO VRB03KT 10SM CLR 04/M08 A3016 RMK AO2 SLP242
T00441083 $





    US Dept of Commerce
    National Oceanic and Atmospheric Administration
    National Weather Service
    1325 East West Highway
    Silver Spring, MD 20910
    Page Author: NWS Internet Services Team
Disclaimer
Information Quality
Credits
Glossary
Privacy Policy
Freedom of Information Act (FOIA)
About Us
Career Opportunities